sensor_id;sensor_type;location;lat;lon;timestamp;P1;durP1;ratioP1;P2;durP2;ratioP2
81314;SDS011;75773;52.534;5.686;2024-03-17T00:02:11;6.18;;;2.00;;
81314;SDS011;75773;52.534;5.686;2024-03-17T00:04:49;4.68;;;1.30;;
81314;SDS011;75773;52.534;5.686;2024-03-17T00:07:18;3.70;;;1.65;;
81314;SDS011;75773;52.534;5.686;2024-03-17T00:09:45;3.22;;;1.63;;
81314;SDS011;75773;52.534;5.686;2024-03-17T00:12:21;2.67;;;1.20;;
81314;SDS011;75773;52.534;5.686;2024-03-17T00:14:54;1.80;;;1.02;;
81314;SDS011;75773;52.534;5.686;2024-03-17T00:17:21;6.32;;;1.27;;
81314;SDS011;75773;52.534;5.686;2024-03-17T00:19:50;6.40;;;1.75;;
81314;SDS011;75773;52.534;5.686;2024-03-17T00:22:17;3.90;;;2.05;;
81314;SDS011;75773;52.534;5.686;2024-03-17T00:24:46;8.07;;;1.50;;
81314;SDS011;75773;52.534;5.686;2024-03-17T00:27:13;2.33;;;1.58;;
81314;SDS011;75773;52.534;5.686;2024-03-17T00:29:46;4.10;;;1.58;;
81314;SDS011;75773;52.534;5.686;2024-03-17T00:32:15;2.17;;;1.40;;
81314;SDS011;75773;52.534;5.686;2024-03-17T00:34:45;7.13;;;1.52;;
81314;SDS011;75773;52.534;5.686;2024-03-17T00:37:11;4.05;;;1.00;;
81314;SDS011;75773;52.534;5.686;2024-03-17T00:39:41;3.22;;;1.63;;
81314;SDS011;75773;52.534;5.686;2024-03-17T00:42:07;2.92;;;1.27;;
81314;SDS011;75773;52.534;5.686;2024-03-17T00:44:37;3.25;;;1.10;;
81314;SDS011;75773;52.534;5.686;2024-03-17T00:47:04;2.30;;;1.17;;
81314;SDS011;75773;52.534;5.686;2024-03-17T00:49:39;2.35;;;1.23;;
81314;SDS011;75773;52.534;5.686;2024-03-17T00:52:11;2.85;;;1.10;;
81314;SDS011;75773;52.534;5.686;2024-03-17T00:54:40;6.00;;;1.52;;
81314;SDS011;75773;52.534;5.686;2024-03-17T00:57:07;5.28;;;1.20;;
81314;SDS011;75773;52.534;5.686;2024-03-17T00:59:37;2.38;;;0.77;;
81314;SDS011;75773;52.534;5.686;2024-03-17T01:02:03;10.40;;;2.22;;
81314;SDS011;75773;52.534;5.686;2024-03-17T01:04:33;4.43;;;0.80;;
81314;SDS011;75773;52.534;5.686;2024-03-17T01:07:12;1.50;;;1.20;;
81314;SDS011;75773;52.534;5.686;2024-03-17T01:09:49;2.38;;;0.60;;
81314;SDS011;75773;52.534;5.686;2024-03-17T01:12:21;4.53;;;0.98;;
81314;SDS011;75773;52.534;5.686;2024-03-17T01:14:51;1.88;;;0.68;;
81314;SDS011;75773;52.534;5.686;2024-03-17T01:17:18;3.22;;;0.93;;
81314;SDS011;75773;52.534;5.686;2024-03-17T01:19:50;4.15;;;0.80;;
81314;SDS011;75773;52.534;5.686;2024-03-17T01:22:17;1.25;;;0.80;;
81314;SDS011;75773;52.534;5.686;2024-03-17T01:24:46;2.15;;;1.00;;
81314;SDS011;75773;52.534;5.686;2024-03-17T01:27:13;1.60;;;1.08;;
81314;SDS011;75773;52.534;5.686;2024-03-17T01:29:42;5.53;;;1.33;;
81314;SDS011;75773;52.534;5.686;2024-03-17T01:32:09;1.20;;;0.77;;
81314;SDS011;75773;52.534;5.686;2024-03-17T01:34:40;2.80;;;0.75;;
81314;SDS011;75773;52.534;5.686;2024-03-17T01:39:46;0.90;;;0.50;;
81314;SDS011;75773;52.534;5.686;2024-03-17T01:42:15;3.53;;;0.88;;
81314;SDS011;75773;52.534;5.686;2024-03-17T01:44:44;4.22;;;1.02;;
81314;SDS011;75773;52.534;5.686;2024-03-17T01:47:11;2.83;;;0.43;;
81314;SDS011;75773;52.534;5.686;2024-03-17T01:49:44;10.77;;;1.05;;
81314;SDS011;75773;52.534;5.686;2024-03-17T01:52:13;0.63;;;0.40;;
81314;SDS011;75773;52.534;5.686;2024-03-17T01:54:43;1.80;;;0.95;;
81314;SDS011;75773;52.534;5.686;2024-03-17T01:57:14;1.38;;;1.27;;
81314;SDS011;75773;52.534;5.686;2024-03-17T01:59:44;1.60;;;0.73;;
81314;SDS011;75773;52.534;5.686;2024-03-17T02:02:15;1.55;;;0.88;;
81314;SDS011;75773;52.534;5.686;2024-03-17T02:04:44;0.63;;;0.47;;
81314;SDS011;75773;52.534;5.686;2024-03-17T02:07:11;4.85;;;0.60;;
81314;SDS011;75773;52.534;5.686;2024-03-17T02:09:43;0.90;;;0.50;;
81314;SDS011;75773;52.534;5.686;2024-03-17T02:12:10;2.45;;;1.00;;
81314;SDS011;75773;52.534;5.686;2024-03-17T02:14:39;9.93;;;0.98;;
81314;SDS011;75773;52.534;5.686;2024-03-17T02:17:09;0.88;;;0.47;;
81314;SDS011;75773;52.534;5.686;2024-03-17T02:19:36;0.77;;;0.55;;
81314;SDS011;75773;52.534;5.686;2024-03-17T02:22:12;0.73;;;0.60;;
81314;SDS011;75773;52.534;5.686;2024-03-17T02:24:39;1.92;;;0.65;;
81314;SDS011;75773;52.534;5.686;2024-03-17T02:27:09;4.00;;;1.15;;
81314;SDS011;75773;52.534;5.686;2024-03-17T02:29:38;1.63;;;0.80;;
81314;SDS011;75773;52.534;5.686;2024-03-17T02:32:08;2.75;;;0.45;;
81314;SDS011;75773;52.534;5.686;2024-03-17T02:34:53;2.45;;;0.52;;
81314;SDS011;75773;52.534;5.686;2024-03-17T02:37:26;2.00;;;0.55;;
81314;SDS011;75773;52.534;5.686;2024-03-17T02:39:53;1.20;;;0.77;;
81314;SDS011;75773;52.534;5.686;2024-03-17T02:42:25;3.92;;;0.60;;
81314;SDS011;75773;52.534;5.686;2024-03-17T02:44:54;1.63;;;0.75;;
81314;SDS011;75773;52.534;5.686;2024-03-17T02:47:26;4.38;;;0.52;;
81314;SDS011;75773;52.534;5.686;2024-03-17T02:49:56;1.85;;;0.93;;
81314;SDS011;75773;52.534;5.686;2024-03-17T02:52:28;6.22;;;1.55;;
81314;SDS011;75773;52.534;5.686;2024-03-17T02:54:57;0.45;;;0.35;;
81314;SDS011;75773;52.534;5.686;2024-03-17T02:57:26;2.63;;;1.15;;
81314;SDS011;75773;52.534;5.686;2024-03-17T02:59:58;5.63;;;1.08;;
81314;SDS011;75773;52.534;5.686;2024-03-17T03:02:30;3.67;;;0.73;;
81314;SDS011;75773;52.534;5.686;2024-03-17T03:04:59;6.90;;;1.88;;
81314;SDS011;75773;52.534;5.686;2024-03-17T03:07:31;3.28;;;0.68;;
81314;SDS011;75773;52.534;5.686;2024-03-17T03:10:01;1.70;;;0.90;;
81314;SDS011;75773;52.534;5.686;2024-03-17T03:12:31;1.85;;;1.02;;
81314;SDS011;75773;52.534;5.686;2024-03-17T03:15:00;2.67;;;1.35;;
81314;SDS011;75773;52.534;5.686;2024-03-17T03:17:31;11.25;;;1.55;;
81314;SDS011;75773;52.534;5.686;2024-03-17T03:20:00;8.35;;;1.23;;
81314;SDS011;75773;52.534;5.686;2024-03-17T03:25:06;1.92;;;1.20;;
81314;SDS011;75773;52.534;5.686;2024-03-17T03:27:36;6.18;;;1.33;;
81314;SDS011;75773;52.534;5.686;2024-03-17T03:30:06;2.97;;;1.63;;
81314;SDS011;75773;52.534;5.686;2024-03-17T03:32:36;6.22;;;1.48;;
81314;SDS011;75773;52.534;5.686;2024-03-17T03:35:05;3.47;;;1.75;;
81314;SDS011;75773;52.534;5.686;2024-03-17T03:37:38;8.13;;;1.50;;
81314;SDS011;75773;52.534;5.686;2024-03-17T03:40:07;2.80;;;1.75;;
81314;SDS011;75773;52.534;5.686;2024-03-17T03:42:42;5.50;;;1.13;;
81314;SDS011;75773;52.534;5.686;2024-03-17T03:45:11;3.15;;;1.25;;
81314;SDS011;75773;52.534;5.686;2024-03-17T03:47:41;1.27;;;1.00;;
81314;SDS011;75773;52.534;5.686;2024-03-17T03:50:17;2.88;;;1.73;;
81314;SDS011;75773;52.534;5.686;2024-03-17T03:52:51;3.30;;;1.65;;
81314;SDS011;75773;52.534;5.686;2024-03-17T03:55:20;3.65;;;1.55;;
81314;SDS011;75773;52.534;5.686;2024-03-17T03:57:50;2.90;;;1.52;;
81314;SDS011;75773;52.534;5.686;2024-03-17T04:00:20;2.17;;;1.42;;
81314;SDS011;75773;52.534;5.686;2024-03-17T04:02:52;1.33;;;1.23;;
81314;SDS011;75773;52.534;5.686;2024-03-17T04:05:19;3.67;;;1.63;;
81314;SDS011;75773;52.534;5.686;2024-03-17T04:07:51;5.75;;;1.95;;
81314;SDS011;75773;52.534;5.686;2024-03-17T04:10:20;7.60;;;2.33;;
81314;SDS011;75773;52.534;5.686;2024-03-17T04:12:50;10.02;;;2.00;;
81314;SDS011;75773;52.534;5.686;2024-03-17T04:15:19;9.82;;;1.75;;
81314;SDS011;75773;52.534;5.686;2024-03-17T04:17:49;4.10;;;2.40;;
81314;SDS011;75773;52.534;5.686;2024-03-17T04:20:19;2.60;;;1.50;;
81314;SDS011;75773;52.534;5.686;2024-03-17T04:22:51;3.58;;;1.90;;
81314;SDS011;75773;52.534;5.686;2024-03-17T04:25:20;5.25;;;2.05;;
81314;SDS011;75773;52.534;5.686;2024-03-17T04:27:50;16.45;;;2.65;;
81314;SDS011;75773;52.534;5.686;2024-03-17T04:30:19;5.90;;;2.10;;
81314;SDS011;75773;52.534;5.686;2024-03-17T04:32:50;2.63;;;2.05;;
81314;SDS011;75773;52.534;5.686;2024-03-17T04:35:20;6.28;;;1.80;;
81314;SDS011;75773;52.534;5.686;2024-03-17T04:37:52;3.33;;;1.75;;
81314;SDS011;75773;52.534;5.686;2024-03-17T04:40:23;6.28;;;2.13;;
81314;SDS011;75773;52.534;5.686;2024-03-17T04:42:52;5.05;;;2.42;;
81314;SDS011;75773;52.534;5.686;2024-03-17T04:45:21;4.65;;;2.05;;
81314;SDS011;75773;52.534;5.686;2024-03-17T04:47:51;14.90;;;2.53;;
81314;SDS011;75773;52.534;5.686;2024-03-17T04:50:21;3.30;;;2.08;;
81314;SDS011;75773;52.534;5.686;2024-03-17T04:52:54;5.93;;;2.33;;
81314;SDS011;75773;52.534;5.686;2024-03-17T04:55:23;7.53;;;2.72;;
81314;SDS011;75773;52.534;5.686;2024-03-17T04:57:54;4.68;;;2.15;;
81314;SDS011;75773;52.534;5.686;2024-03-17T05:00:23;3.67;;;2.45;;
81314;SDS011;75773;52.534;5.686;2024-03-17T05:02:55;4.38;;;2.03;;
81314;SDS011;75773;52.534;5.686;2024-03-17T05:05:24;8.23;;;2.63;;
81314;SDS011;75773;52.534;5.686;2024-03-17T05:07:56;5.30;;;2.85;;
81314;SDS011;75773;52.534;5.686;2024-03-17T05:10:29;5.05;;;2.63;;
81314;SDS011;75773;52.534;5.686;2024-03-17T05:12:58;4.97;;;2.78;;
81314;SDS011;75773;52.534;5.686;2024-03-17T05:15:28;3.97;;;2.25;;
81314;SDS011;75773;52.534;5.686;2024-03-17T05:17:57;4.05;;;2.40;;
81314;SDS011;75773;52.534;5.686;2024-03-17T05:20:26;5.25;;;3.08;;
81314;SDS011;75773;52.534;5.686;2024-03-17T05:22:58;4.05;;;2.92;;
81314;SDS011;75773;52.534;5.686;2024-03-17T05:25:28;5.38;;;2.28;;
81314;SDS011;75773;52.534;5.686;2024-03-17T05:28:02;5.82;;;2.80;;
81314;SDS011;75773;52.534;5.686;2024-03-17T05:30:35;9.18;;;3.88;;
81314;SDS011;75773;52.534;5.686;2024-03-17T05:33:02;6.25;;;3.22;;
81314;SDS011;75773;52.534;5.686;2024-03-17T05:35:31;6.60;;;2.92;;
81314;SDS011;75773;52.534;5.686;2024-03-17T05:38:06;6.70;;;2.35;;
81314;SDS011;75773;52.534;5.686;2024-03-17T05:40:36;6.75;;;2.47;;
81314;SDS011;75773;52.534;5.686;2024-03-17T05:43:07;6.32;;;2.78;;
81314;SDS011;75773;52.534;5.686;2024-03-17T05:45:36;6.25;;;2.47;;
81314;SDS011;75773;52.534;5.686;2024-03-17T05:48:06;4.35;;;2.67;;
81314;SDS011;75773;52.534;5.686;2024-03-17T05:50:35;6.35;;;2.40;;
81314;SDS011;75773;52.534;5.686;2024-03-17T05:53:07;4.20;;;2.55;;
81314;SDS011;75773;52.534;5.686;2024-03-17T05:55:37;7.05;;;2.30;;
81314;SDS011;75773;52.534;5.686;2024-03-17T05:58:08;4.85;;;3.08;;
81314;SDS011;75773;52.534;5.686;2024-03-17T06:00:40;7.35;;;2.67;;
81314;SDS011;75773;52.534;5.686;2024-03-17T06:03:09;4.85;;;3.13;;
81314;SDS011;75773;52.534;5.686;2024-03-17T06:05:39;6.07;;;3.25;;
81314;SDS011;75773;52.534;5.686;2024-03-17T06:08:13;6.05;;;3.15;;
81314;SDS011;75773;52.534;5.686;2024-03-17T06:10:43;4.85;;;2.88;;
81314;SDS011;75773;52.534;5.686;2024-03-17T06:13:13;4.10;;;2.92;;
81314;SDS011;75773;52.534;5.686;2024-03-17T06:15:44;5.28;;;3.35;;
81314;SDS011;75773;52.534;5.686;2024-03-17T06:18:14;12.02;;;4.50;;
81314;SDS011;75773;52.534;5.686;2024-03-17T06:20:44;5.53;;;3.70;;
81314;SDS011;75773;52.534;5.686;2024-03-17T06:23:26;8.25;;;3.80;;
81314;SDS011;75773;52.534;5.686;2024-03-17T06:25:55;5.78;;;3.13;;
81314;SDS011;75773;52.534;5.686;2024-03-17T06:28:25;7.60;;;3.78;;
81314;SDS011;75773;52.534;5.686;2024-03-17T06:30:56;7.43;;;3.75;;
81314;SDS011;75773;52.534;5.686;2024-03-17T06:33:29;9.75;;;4.15;;
81314;SDS011;75773;52.534;5.686;2024-03-17T06:36:01;7.90;;;3.25;;
81314;SDS011;75773;52.534;5.686;2024-03-17T06:38:34;6.22;;;3.28;;
81314;SDS011;75773;52.534;5.686;2024-03-17T06:41:03;8.27;;;3.35;;
81314;SDS011;75773;52.534;5.686;2024-03-17T06:43:33;7.63;;;3.22;;
81314;SDS011;75773;52.534;5.686;2024-03-17T06:46:06;6.13;;;3.35;;
81314;SDS011;75773;52.534;5.686;2024-03-17T06:48:37;6.03;;;3.45;;
81314;SDS011;75773;52.534;5.686;2024-03-17T06:51:07;13.90;;;4.57;;
81314;SDS011;75773;52.534;5.686;2024-03-17T06:53:41;10.70;;;4.65;;
81314;SDS011;75773;52.534;5.686;2024-03-17T06:56:10;10.57;;;3.70;;
81314;SDS011;75773;52.534;5.686;2024-03-17T06:58:40;8.55;;;3.42;;
81314;SDS011;75773;52.534;5.686;2024-03-17T07:01:09;9.68;;;4.15;;
81314;SDS011;75773;52.534;5.686;2024-03-17T07:03:39;7.05;;;3.58;;
81314;SDS011;75773;52.534;5.686;2024-03-17T07:06:10;6.10;;;3.28;;
81314;SDS011;75773;52.534;5.686;2024-03-17T07:08:42;8.23;;;3.67;;
81314;SDS011;75773;52.534;5.686;2024-03-17T07:11:11;5.93;;;3.13;;
81314;SDS011;75773;52.534;5.686;2024-03-17T07:13:43;5.63;;;4.07;;
81314;SDS011;75773;52.534;5.686;2024-03-17T07:16:12;6.53;;;3.67;;
81314;SDS011;75773;52.534;5.686;2024-03-17T07:18:41;7.20;;;4.00;;
81314;SDS011;75773;52.534;5.686;2024-03-17T07:21:11;11.77;;;4.28;;
81314;SDS011;75773;52.534;5.686;2024-03-17T07:23:47;6.80;;;3.40;;
81314;SDS011;75773;52.534;5.686;2024-03-17T07:26:16;6.85;;;3.60;;
81314;SDS011;75773;52.534;5.686;2024-03-17T07:28:46;6.72;;;3.85;;
81314;SDS011;75773;52.534;5.686;2024-03-17T07:31:15;6.72;;;3.58;;
81314;SDS011;75773;52.534;5.686;2024-03-17T07:33:44;7.43;;;4.07;;
81314;SDS011;75773;52.534;5.686;2024-03-17T07:36:13;5.90;;;3.75;;
81314;SDS011;75773;52.534;5.686;2024-03-17T07:38:43;7.85;;;3.28;;
81314;SDS011;75773;52.534;5.686;2024-03-17T07:41:15;7.10;;;3.30;;
81314;SDS011;75773;52.534;5.686;2024-03-17T07:43:45;9.05;;;3.83;;
81314;SDS011;75773;52.534;5.686;2024-03-17T07:46:16;6.13;;;3.42;;
81314;SDS011;75773;52.534;5.686;2024-03-17T07:48:48;11.02;;;3.75;;
81314;SDS011;75773;52.534;5.686;2024-03-17T07:51:18;7.70;;;3.55;;
81314;SDS011;75773;52.534;5.686;2024-03-17T07:53:49;8.05;;;3.75;;
81314;SDS011;75773;52.534;5.686;2024-03-17T07:56:21;13.77;;;3.70;;
81314;SDS011;75773;52.534;5.686;2024-03-17T07:58:51;6.32;;;3.40;;
81314;SDS011;75773;52.534;5.686;2024-03-17T08:01:20;11.88;;;3.50;;
81314;SDS011;75773;52.534;5.686;2024-03-17T08:03:49;5.57;;;2.58;;
81314;SDS011;75773;52.534;5.686;2024-03-17T08:06:21;8.60;;;3.60;;
81314;SDS011;75773;52.534;5.686;2024-03-17T08:08:51;5.78;;;3.63;;
81314;SDS011;75773;52.534;5.686;2024-03-17T08:11:26;6.55;;;3.70;;
81314;SDS011;75773;52.534;5.686;2024-03-17T08:14:04;4.60;;;3.72;;
81314;SDS011;75773;52.534;5.686;2024-03-17T08:16:34;7.07;;;3.60;;
81314;SDS011;75773;52.534;5.686;2024-03-17T08:19:03;6.93;;;3.13;;
81314;SDS011;75773;52.534;5.686;2024-03-17T08:21:38;5.80;;;3.15;;
81314;SDS011;75773;52.534;5.686;2024-03-17T08:24:07;5.47;;;3.28;;
81314;SDS011;75773;52.534;5.686;2024-03-17T08:26:39;5.32;;;3.65;;
81314;SDS011;75773;52.534;5.686;2024-03-17T08:29:11;6.20;;;2.50;;
81314;SDS011;75773;52.534;5.686;2024-03-17T08:31:40;4.80;;;3.40;;
81314;SDS011;75773;52.534;5.686;2024-03-17T08:34:11;7.22;;;3.45;;
81314;SDS011;75773;52.534;5.686;2024-03-17T08:36:40;6.55;;;3.67;;
81314;SDS011;75773;52.534;5.686;2024-03-17T08:39:12;4.95;;;3.17;;
81314;SDS011;75773;52.534;5.686;2024-03-17T08:41:51;7.32;;;3.42;;
81314;SDS011;75773;52.534;5.686;2024-03-17T08:44:20;6.07;;;3.20;;
81314;SDS011;75773;52.534;5.686;2024-03-17T08:46:49;4.97;;;3.20;;
81314;SDS011;75773;52.534;5.686;2024-03-17T08:49:19;5.60;;;3.50;;
81314;SDS011;75773;52.534;5.686;2024-03-17T08:51:49;4.72;;;2.92;;
81314;SDS011;75773;52.534;5.686;2024-03-17T08:54:18;7.72;;;3.03;;
81314;SDS011;75773;52.534;5.686;2024-03-17T08:56:52;5.93;;;2.95;;
81314;SDS011;75773;52.534;5.686;2024-03-17T08:59:23;6.95;;;3.20;;
81314;SDS011;75773;52.534;5.686;2024-03-17T09:02:06;5.05;;;3.05;;
81314;SDS011;75773;52.534;5.686;2024-03-17T09:04:40;4.15;;;3.00;;
81314;SDS011;75773;52.534;5.686;2024-03-17T09:07:10;5.57;;;2.80;;
81314;SDS011;75773;52.534;5.686;2024-03-17T09:09:41;6.07;;;3.20;;
81314;SDS011;75773;52.534;5.686;2024-03-17T09:12:14;6.18;;;3.28;;
81314;SDS011;75773;52.534;5.686;2024-03-17T09:14:46;5.38;;;2.70;;
81314;SDS011;75773;52.534;5.686;2024-03-17T09:17:16;6.35;;;2.85;;
81314;SDS011;75773;52.534;5.686;2024-03-17T09:19:46;6.00;;;2.97;;
81314;SDS011;75773;52.534;5.686;2024-03-17T09:22:16;6.85;;;3.08;;
81314;SDS011;75773;52.534;5.686;2024-03-17T09:24:45;7.30;;;3.10;;
81314;SDS011;75773;52.534;5.686;2024-03-17T09:27:17;5.63;;;3.35;;
81314;SDS011;75773;52.534;5.686;2024-03-17T09:29:48;7.05;;;3.40;;
81314;SDS011;75773;52.534;5.686;2024-03-17T09:32:17;6.30;;;2.90;;
81314;SDS011;75773;52.534;5.686;2024-03-17T09:34:46;5.30;;;2.67;;
81314;SDS011;75773;52.534;5.686;2024-03-17T09:37:16;7.95;;;3.10;;
81314;SDS011;75773;52.534;5.686;2024-03-17T09:39:47;5.63;;;3.13;;
81314;SDS011;75773;52.534;5.686;2024-03-17T09:42:19;7.65;;;2.90;;
81314;SDS011;75773;52.534;5.686;2024-03-17T09:44:49;4.97;;;2.92;;
81314;SDS011;75773;52.534;5.686;2024-03-17T09:47:21;4.45;;;2.80;;
81314;SDS011;75773;52.534;5.686;2024-03-17T09:49:52;7.25;;;3.25;;
81314;SDS011;75773;52.534;5.686;2024-03-17T09:52:22;4.22;;;2.38;;
81314;SDS011;75773;52.534;5.686;2024-03-17T09:54:54;6.03;;;2.55;;
81314;SDS011;75773;52.534;5.686;2024-03-17T09:57:30;4.45;;;2.53;;
81314;SDS011;75773;52.534;5.686;2024-03-17T10:00:01;7.35;;;2.42;;
81314;SDS011;75773;52.534;5.686;2024-03-17T10:02:41;5.20;;;3.17;;
81314;SDS011;75773;52.534;5.686;2024-03-17T10:05:18;4.45;;;2.10;;
81314;SDS011;75773;52.534;5.686;2024-03-17T10:07:49;5.63;;;3.03;;
81314;SDS011;75773;52.534;5.686;2024-03-17T10:10:20;4.03;;;2.58;;
81314;SDS011;75773;52.534;5.686;2024-03-17T10:12:52;7.40;;;2.97;;
81314;SDS011;75773;52.534;5.686;2024-03-17T10:15:21;5.93;;;2.90;;
81314;SDS011;75773;52.534;5.686;2024-03-17T10:17:51;4.90;;;2.63;;
81314;SDS011;75773;52.534;5.686;2024-03-17T10:20:21;4.43;;;2.95;;
81314;SDS011;75773;52.534;5.686;2024-03-17T10:22:58;5.88;;;2.90;;
81314;SDS011;75773;52.534;5.686;2024-03-17T10:25:30;5.45;;;2.97;;
81314;SDS011;75773;52.534;5.686;2024-03-17T10:28:04;4.25;;;3.17;;
81314;SDS011;75773;52.534;5.686;2024-03-17T10:30:39;7.13;;;3.05;;
81314;SDS011;75773;52.534;5.686;2024-03-17T10:33:21;11.48;;;4.03;;
81314;SDS011;75773;52.534;5.686;2024-03-17T10:35:57;4.97;;;2.92;;
81314;SDS011;75773;52.534;5.686;2024-03-17T10:38:29;6.68;;;3.15;;
81314;SDS011;75773;52.534;5.686;2024-03-17T10:41:00;5.22;;;3.17;;
81314;SDS011;75773;52.534;5.686;2024-03-17T10:43:32;4.85;;;3.55;;
81314;SDS011;75773;52.534;5.686;2024-03-17T10:46:03;5.85;;;3.10;;
81314;SDS011;75773;52.534;5.686;2024-03-17T10:48:33;9.40;;;3.42;;
81314;SDS011;75773;52.534;5.686;2024-03-17T10:51:05;6.53;;;3.20;;
81314;SDS011;75773;52.534;5.686;2024-03-17T10:53:35;4.85;;;3.00;;
81314;SDS011;75773;52.534;5.686;2024-03-17T10:56:05;6.15;;;2.58;;
81314;SDS011;75773;52.534;5.686;2024-03-17T10:58:39;4.47;;;2.83;;
81314;SDS011;75773;52.534;5.686;2024-03-17T11:01:15;7.30;;;2.80;;
81314;SDS011;75773;52.534;5.686;2024-03-17T11:03:46;4.78;;;2.88;;
81314;SDS011;75773;52.534;5.686;2024-03-17T11:06:16;6.22;;;2.90;;
81314;SDS011;75773;52.534;5.686;2024-03-17T11:08:46;5.25;;;2.75;;
81314;SDS011;75773;52.534;5.686;2024-03-17T11:11:31;5.20;;;2.92;;
81314;SDS011;75773;52.534;5.686;2024-03-17T11:14:20;6.07;;;2.58;;
81314;SDS011;75773;52.534;5.686;2024-03-17T11:16:52;7.90;;;2.80;;
81314;SDS011;75773;52.534;5.686;2024-03-17T11:19:21;4.57;;;3.05;;
81314;SDS011;75773;52.534;5.686;2024-03-17T11:21:50;3.50;;;3.00;;
81314;SDS011;75773;52.534;5.686;2024-03-17T11:24:21;5.63;;;2.30;;
81314;SDS011;75773;52.534;5.686;2024-03-17T11:26:51;4.85;;;3.30;;
81314;SDS011;75773;52.534;5.686;2024-03-17T11:29:30;6.40;;;2.42;;
81314;SDS011;75773;52.534;5.686;2024-03-17T11:32:00;4.57;;;3.00;;
81314;SDS011;75773;52.534;5.686;2024-03-17T11:34:54;3.38;;;2.33;;
81314;SDS011;75773;52.534;5.686;2024-03-17T11:37:42;6.15;;;2.90;;
81314;SDS011;75773;52.534;5.686;2024-03-17T11:40:22;9.15;;;2.65;;
81314;SDS011;75773;52.534;5.686;2024-03-17T11:43:04;4.63;;;2.90;;
81314;SDS011;75773;52.534;5.686;2024-03-17T11:45:45;4.25;;;2.40;;
81314;SDS011;75773;52.534;5.686;2024-03-17T11:48:14;4.30;;;2.88;;
81314;SDS011;75773;52.534;5.686;2024-03-17T11:50:42;3.15;;;2.13;;
81314;SDS011;75773;52.534;5.686;2024-03-17T11:53:13;6.05;;;2.95;;
81314;SDS011;75773;52.534;5.686;2024-03-17T11:55:39;8.40;;;3.10;;
81314;SDS011;75773;52.534;5.686;2024-03-17T11:58:16;4.47;;;2.67;;
81314;SDS011;75773;52.534;5.686;2024-03-17T12:00:53;3.90;;;2.05;;
81314;SDS011;75773;52.534;5.686;2024-03-17T12:03:21;3.28;;;2.30;;
81314;SDS011;75773;52.534;5.686;2024-03-17T12:05:50;4.90;;;2.90;;
81314;SDS011;75773;52.534;5.686;2024-03-17T12:08:19;6.57;;;2.55;;
81314;SDS011;75773;52.534;5.686;2024-03-17T12:10:51;5.82;;;2.25;;
81314;SDS011;75773;52.534;5.686;2024-03-17T12:13:20;4.82;;;2.13;;
81314;SDS011;75773;52.534;5.686;2024-03-17T12:15:53;3.30;;;2.22;;
81314;SDS011;75773;52.534;5.686;2024-03-17T12:18:39;5.65;;;2.20;;
81314;SDS011;75773;52.534;5.686;2024-03-17T12:21:12;5.50;;;2.30;;
81314;SDS011;75773;52.534;5.686;2024-03-17T12:23:39;3.95;;;2.28;;
81314;SDS011;75773;52.534;5.686;2024-03-17T12:26:09;3.28;;;2.25;;
81314;SDS011;75773;52.534;5.686;2024-03-17T12:28:45;5.60;;;2.80;;
81314;SDS011;75773;52.534;5.686;2024-03-17T12:31:18;5.93;;;3.15;;
81314;SDS011;75773;52.534;5.686;2024-03-17T12:33:45;3.33;;;2.20;;
81314;SDS011;75773;52.534;5.686;2024-03-17T12:36:14;7.97;;;2.28;;
81314;SDS011;75773;52.534;5.686;2024-03-17T12:38:41;8.32;;;2.70;;
81314;SDS011;75773;52.534;5.686;2024-03-17T12:41:16;5.18;;;2.78;;
81314;SDS011;75773;52.534;5.686;2024-03-17T12:43:47;5.63;;;2.38;;
81314;SDS011;75773;52.534;5.686;2024-03-17T12:46:21;4.75;;;2.22;;
81314;SDS011;75773;52.534;5.686;2024-03-17T12:48:47;7.43;;;2.58;;
81314;SDS011;75773;52.534;5.686;2024-03-17T12:51:29;5.28;;;2.17;;
81314;SDS011;75773;52.534;5.686;2024-03-17T12:54:11;6.30;;;2.65;;
81314;SDS011;75773;52.534;5.686;2024-03-17T12:56:41;4.93;;;2.42;;
81314;SDS011;75773;52.534;5.686;2024-03-17T12:59:22;4.85;;;2.40;;
81314;SDS011;75773;52.534;5.686;2024-03-17T13:02:08;8.35;;;2.80;;
81314;SDS011;75773;52.534;5.686;2024-03-17T13:04:40;3.45;;;2.38;;
81314;SDS011;75773;52.534;5.686;2024-03-17T13:07:10;3.63;;;2.22;;
81314;SDS011;75773;52.534;5.686;2024-03-17T13:09:39;7.65;;;2.70;;
81314;SDS011;75773;52.534;5.686;2024-03-17T13:12:13;3.67;;;2.03;;
81314;SDS011;75773;52.534;5.686;2024-03-17T13:14:43;4.63;;;2.70;;
81314;SDS011;75773;52.534;5.686;2024-03-17T13:17:16;5.35;;;2.13;;
81314;SDS011;75773;52.534;5.686;2024-03-17T13:19:45;4.18;;;2.67;;
81314;SDS011;75773;52.534;5.686;2024-03-17T13:22:15;4.43;;;2.35;;
81314;SDS011;75773;52.534;5.686;2024-03-17T13:24:50;7.07;;;2.47;;
81314;SDS011;75773;52.534;5.686;2024-03-17T13:27:17;3.72;;;2.60;;
81314;SDS011;75773;52.534;5.686;2024-03-17T13:29:49;4.90;;;2.88;;
81314;SDS011;75773;52.534;5.686;2024-03-17T13:32:22;3.85;;;2.08;;
81314;SDS011;75773;52.534;5.686;2024-03-17T13:34:52;8.63;;;2.40;;
81314;SDS011;75773;52.534;5.686;2024-03-17T13:37:21;5.70;;;2.55;;
81314;SDS011;75773;52.534;5.686;2024-03-17T13:39:51;5.20;;;2.92;;
81314;SDS011;75773;52.534;5.686;2024-03-17T13:42:20;9.68;;;3.42;;
81314;SDS011;75773;52.534;5.686;2024-03-17T13:44:49;7.13;;;2.55;;
81314;SDS011;75773;52.534;5.686;2024-03-17T13:47:24;5.65;;;2.85;;
81314;SDS011;75773;52.534;5.686;2024-03-17T13:49:54;5.13;;;2.70;;
81314;SDS011;75773;52.534;5.686;2024-03-17T13:52:23;6.65;;;2.28;;
81314;SDS011;75773;52.534;5.686;2024-03-17T13:54:54;5.63;;;2.45;;
81314;SDS011;75773;52.534;5.686;2024-03-17T13:57:23;5.30;;;2.88;;
81314;SDS011;75773;52.534;5.686;2024-03-17T13:59:54;8.15;;;3.15;;
81314;SDS011;75773;52.534;5.686;2024-03-17T14:02:26;4.47;;;2.47;;
81314;SDS011;75773;52.534;5.686;2024-03-17T14:04:56;3.55;;;2.13;;
81314;SDS011;75773;52.534;5.686;2024-03-17T14:07:29;8.20;;;3.13;;
81314;SDS011;75773;52.534;5.686;2024-03-17T14:10:00;5.25;;;2.80;;
81314;SDS011;75773;52.534;5.686;2024-03-17T14:12:30;6.63;;;2.63;;
81314;SDS011;75773;52.534;5.686;2024-03-17T14:14:59;4.97;;;2.55;;
81314;SDS011;75773;52.534;5.686;2024-03-17T14:17:31;5.38;;;2.33;;
81314;SDS011;75773;52.534;5.686;2024-03-17T14:20:01;3.55;;;2.10;;
81314;SDS011;75773;52.534;5.686;2024-03-17T14:22:31;4.28;;;2.22;;
81314;SDS011;75773;52.534;5.686;2024-03-17T14:25:07;7.47;;;2.50;;
81314;SDS011;75773;52.534;5.686;2024-03-17T14:27:38;6.03;;;2.53;;
81314;SDS011;75773;52.534;5.686;2024-03-17T14:30:08;5.43;;;2.58;;
81314;SDS011;75773;52.534;5.686;2024-03-17T14:32:41;9.80;;;2.70;;
81314;SDS011;75773;52.534;5.686;2024-03-17T14:35:12;3.63;;;2.47;;
81314;SDS011;75773;52.534;5.686;2024-03-17T14:37:42;7.38;;;3.22;;
81314;SDS011;75773;52.534;5.686;2024-03-17T14:40:13;5.32;;;2.47;;
81314;SDS011;75773;52.534;5.686;2024-03-17T14:42:47;6.93;;;2.80;;
81314;SDS011;75773;52.534;5.686;2024-03-17T14:45:20;5.78;;;2.65;;
81314;SDS011;75773;52.534;5.686;2024-03-17T14:47:54;5.07;;;2.50;;
81314;SDS011;75773;52.534;5.686;2024-03-17T14:50:25;5.78;;;2.72;;
81314;SDS011;75773;52.534;5.686;2024-03-17T14:52:54;4.93;;;3.00;;
81314;SDS011;75773;52.534;5.686;2024-03-17T14:55:24;6.15;;;2.58;;
81314;SDS011;75773;52.534;5.686;2024-03-17T14:57:54;3.85;;;1.98;;
81314;SDS011;75773;52.534;5.686;2024-03-17T15:00:23;5.07;;;2.72;;
81314;SDS011;75773;52.534;5.686;2024-03-17T15:02:55;7.82;;;3.45;;
81314;SDS011;75773;52.534;5.686;2024-03-17T15:05:25;5.43;;;2.40;;
81314;SDS011;75773;52.534;5.686;2024-03-17T15:07:54;6.30;;;3.42;;
81314;SDS011;75773;52.534;5.686;2024-03-17T15:10:23;4.93;;;2.90;;
81314;SDS011;75773;52.534;5.686;2024-03-17T15:12:53;5.78;;;2.65;;
81314;SDS011;75773;52.534;5.686;2024-03-17T15:15:25;7.97;;;3.22;;
81314;SDS011;75773;52.534;5.686;2024-03-17T15:17:57;9.02;;;2.90;;